Time;durP1;ratioP1;P1;durP2;ratioP2;P2;SDS_P1;SDS_P2;PMS_P1;PMS_P2;Temp;Humidity;BMP_temperature;BMP_pressure;BME280_temperature;BME280_humidity;BME280_pressure;Samples;Min_cycle;Max_cycle;Signal;HPM_P1;HPM_P2
2021/05/04 00:00:39;;;;;;;5.80;5.20;;;;;;;6.03;79.47;98361.34;4735102;29;102999;-76
2021/05/04 00:03:06;;;;;;;9.37;5.33;;;;;;;6.19;78.51;98358.63;4735448;29;103290;-76
2021/05/04 00:05:36;;;;;;;7.00;5.67;;;;;;;6.25;77.85;98359.13;4734474;29;104348;-74
2021/05/04 00:08:03;;;;;;;5.40;4.90;;;;;;;6.27;77.87;98344.13;4740171;29;103872;-77
2021/05/04 00:10:31;;;;;;;7.60;4.77;;;;;;;6.26;78.16;98347.69;4741248;29;103254;-75
2021/05/04 00:12:58;;;;;;;5.03;4.53;;;;;;;6.20;78.96;98340.16;4738524;29;102951;-76
2021/05/04 00:15:25;;;;;;;6.23;5.27;;;;;;;6.18;78.95;98343.81;4736567;29;103427;-74
2021/05/04 00:17:52;;;;;;;6.20;4.83;;;;;;;6.16;79.10;98333.44;4736718;29;103791;-78
2021/05/04 00:20:20;;;;;;;4.87;4.47;;;;;;;6.18;79.36;98342.06;4735331;29;103140;-73
2021/05/04 00:22:47;;;;;;;5.73;4.20;;;;;;;6.22;78.95;98335.69;4739982;29;103100;-74
2021/05/04 00:25:14;;;;;;;4.40;4.00;;;;;;;6.20;79.18;98339.34;4747271;29;103927;-75
2021/05/04 00:27:42;;;;;;;4.67;4.17;;;;;;;6.25;78.52;98335.50;4739798;29;104868;-75
2021/05/04 00:30:11;;;;;;;4.50;4.10;;;;;;;6.25;78.47;98332.88;4752336;29;102968;-75
2021/05/04 00:32:38;;;;;;;4.30;3.90;;;;;;;6.07;78.87;98326.13;4735782;29;103346;-75
2021/05/04 00:35:06;;;;;;;3.97;3.57;;;;;;;6.15;77.14;98313.38;4723305;29;104313;-75
2021/05/04 00:37:33;;;;;;;4.27;3.87;;;;;;;6.14;77.50;98316.97;4740785;29;103677;-74
2021/05/04 00:40:00;;;;;;;4.80;4.00;;;;;;;6.30;76.94;98317.72;4735864;29;103261;-74
2021/05/04 00:42:27;;;;;;;6.57;4.03;;;;;;;6.29;77.32;98309.91;4736817;29;103366;-75
2021/05/04 00:44:55;;;;;;;4.37;3.77;;;;;;;6.32;77.51;98304.47;4735950;29;103970;-74
2021/05/04 00:47:23;;;;;;;5.27;4.33;;;;;;;6.28;77.95;98301.22;4734364;29;103703;-78
2021/05/04 00:49:50;;;;;;;4.20;3.80;;;;;;;6.41;77.00;98294.28;4728982;29;103550;-74
2021/05/04 00:52:18;;;;;;;3.90;3.40;;;;;;;6.55;76.39;98296.03;4733639;29;103196;-74
2021/05/04 00:54:46;;;;;;;4.77;4.10;;;;;;;6.51;76.66;98291.09;4753410;29;103643;-75
2021/05/04 00:57:14;;;;;;;3.47;2.97;;;;;;;6.71;75.17;98291.50;4746194;29;103321;-77
2021/05/04 00:59:44;;;;;;;4.07;2.93;;;;;;;6.90;73.68;98288.56;4737552;29;102959;-77
2021/05/04 01:02:12;;;;;;;4.27;2.97;;;;;;;7.05;72.37;98284.94;4735689;29;103576;-75
2021/05/04 01:04:40;;;;;;;3.67;3.37;;;;;;;7.34;70.39;98290.94;4735314;29;103894;-78
2021/05/04 01:07:07;;;;;;;2.73;2.53;;;;;;;7.45;70.21;98277.94;4740219;29;104770;-75
2021/05/04 01:09:35;;;;;;;2.70;2.23;;;;;;;7.52;69.87;98274.78;4734999;29;106142;-77
2021/05/04 01:12:03;;;;;;;3.30;3.00;;;;;;;7.58;69.98;98274.38;4734561;29;103101;-74
2021/05/04 01:14:30;;;;;;;2.77;2.37;;;;;;;7.65;69.32;98271.34;4719992;29;104703;-75
2021/05/04 01:16:57;;;;;;;2.50;2.30;;;;;;;7.79;68.40;98266.00;4717223;29;103655;-75
2021/05/04 01:19:25;;;;;;;2.73;2.53;;;;;;;7.80;68.37;98263.28;4728413;29;102905;-74
2021/05/04 01:21:53;;;;;;;3.40;3.10;;;;;;;7.81;68.21;98264.94;4735218;29;103167;-75
2021/05/04 01:24:20;;;;;;;3.10;2.70;;;;;;;7.86;68.40;98262.03;4750550;29;103314;-75
2021/05/04 01:26:49;;;;;;;2.73;2.33;;;;;;;7.87;68.55;98255.81;4736990;29;104298;-75
2021/05/04 01:29:16;;;;;;;4.23;2.93;;;;;;;7.82;68.82;98244.75;4750551;29;103136;-74
2021/05/04 01:31:43;;;;;;;3.97;3.20;;;;;;;7.78;69.10;98245.91;4742984;29;102802;-76
2021/05/04 01:34:12;;;;;;;3.37;2.57;;;;;;;7.87;67.99;98243.50;4735203;29;103859;-75
2021/05/04 01:36:39;;;;;;;3.67;2.10;;;;;;;7.94;67.71;98228.16;4734459;29;106081;-74
2021/05/04 01:39:09;;;;;;;3.53;2.83;;;;;;;7.97;67.44;98227.94;4733500;29;102732;-75
2021/05/04 01:41:37;;;;;;;3.97;2.30;;;;;;;8.01;67.06;98219.72;4735068;29;103067;-76
2021/05/04 01:44:05;;;;;;;3.27;2.90;;;;;;;8.04;67.15;98219.50;4734575;29;103832;-74
2021/05/04 01:46:33;;;;;;;2.80;2.60;;;;;;;8.04;67.29;98218.66;4735069;29;104414;-74
2021/05/04 01:49:00;;;;;;;3.13;2.80;;;;;;;8.09;66.70;98219.19;4730737;29;103412;-75
2021/05/04 01:51:28;;;;;;;3.07;2.80;;;;;;;8.07;66.56;98218.44;4718534;29;102944;-74
2021/05/04 01:53:56;;;;;;;3.23;2.93;;;;;;;8.14;66.37;98219.69;4741615;29;104248;-76
2021/05/04 01:56:25;;;;;;;3.83;2.93;;;;;;;8.15;66.50;98210.84;4752993;29;103196;-76
2021/05/04 01:58:54;;;;;;;4.33;2.67;;;;;;;8.15;66.11;98205.59;4740572;29;102960;-75
2021/05/04 02:01:21;;;;;;;3.00;2.50;;;;;;;8.15;66.57;98200.34;4730609;29;102856;-77
2021/05/04 02:03:48;;;;;;;4.23;2.90;;;;;;;8.11;67.08;98198.88;4730106;29;103422;-75
2021/05/04 02:06:15;;;;;;;2.93;2.63;;;;;;;8.06;67.44;98195.72;4733095;29;106093;-75
2021/05/04 02:08:42;;;;;;;3.53;2.80;;;;;;;8.05;67.89;98200.16;4738768;29;102947;-79
2021/05/04 02:11:10;;;;;;;4.13;3.13;;;;;;;8.01;67.72;98196.03;4734094;29;102846;-74
2021/05/04 02:13:38;;;;;;;2.67;2.47;;;;;;;8.06;66.83;98191.28;4733806;29;104583;-77
2021/05/04 02:16:05;;;;;;;2.50;2.30;;;;;;;8.07;66.44;98187.72;4734374;29;104375;-75
2021/05/04 02:18:32;;;;;;;2.67;2.47;;;;;;;8.10;66.32;98181.41;4735310;29;103475;-76
2021/05/04 02:20:59;;;;;;;3.77;3.23;;;;;;;7.96;67.96;98181.53;4734487;29;103305;-74
2021/05/04 02:23:26;;;;;;;3.03;2.73;;;;;;;7.98;68.04;98177.84;4743134;29;104750;-74
2021/05/04 02:25:53;;;;;;;2.93;2.73;;;;;;;7.99;68.05;98181.31;4743911;29;103557;-75
2021/05/04 02:28:20;;;;;;;3.70;2.90;;;;;;;7.90;68.06;98168.81;4734651;29;103106;-77
2021/05/04 02:30:48;;;;;;;2.57;2.37;;;;;;;7.89;68.93;98172.38;4734196;29;102680;-78
2021/05/04 02:33:15;;;;;;;3.23;2.93;;;;;;;7.82;68.80;98163.25;4730954;29;102993;-75
2021/05/04 02:35:42;;;;;;;3.20;2.90;;;;;;;7.67;69.30;98156.41;4734165;29;103713;-75
2021/05/04 02:38:09;;;;;;;2.57;2.33;;;;;;;7.74;68.75;98152.41;4732728;29;103011;-74
2021/05/04 02:40:36;;;;;;;3.13;2.43;;;;;;;7.89;67.87;98151.31;4734424;29;103111;-75
2021/05/04 02:43:03;;;;;;;3.87;2.77;;;;;;;7.96;67.86;98150.81;4732880;29;104983;-75
2021/05/04 02:45:30;;;;;;;3.00;2.70;;;;;;;8.02;67.10;98146.91;4734942;29;103710;-75
2021/05/04 02:47:58;;;;;;;2.90;2.53;;;;;;;8.01;67.67;98145.22;4733070;29;102985;-75
2021/05/04 02:50:25;;;;;;;3.97;2.93;;;;;;;7.97;68.11;98144.59;4734117;29;102925;-75
2021/05/04 02:52:52;;;;;;;2.97;2.67;;;;;;;8.00;68.57;98138.28;4738100;29;104102;-74
2021/05/04 02:55:19;;;;;;;3.03;2.37;;;;;;;8.00;68.00;98125.94;4752068;29;103867;-75
2021/05/04 02:57:46;;;;;;;3.73;2.50;;;;;;;7.98;68.63;98124.38;4748635;29;103191;-78
2021/05/04 03:00:14;;;;;;;3.87;3.13;;;;;;;7.94;68.40;98118.50;4735149;29;102981;-75
2021/05/04 03:02:41;;;;;;;3.70;3.40;;;;;;;7.91;68.79;98118.75;4736447;29;107307;-75
2021/05/04 03:05:10;;;;;;;3.37;3.07;;;;;;;7.94;68.67;98112.41;4736078;29;103522;-76
2021/05/04 03:07:37;;;;;;;3.30;3.00;;;;;;;8.01;67.77;98103.13;4726418;29;102993;-74
2021/05/04 03:10:05;;;;;;;2.40;2.20;;;;;;;8.15;66.26;98105.63;4736083;29;103159;-74
2021/05/04 03:12:32;;;;;;;3.57;2.97;;;;;;;8.24;65.50;98096.22;4741923;29;106596;-74
2021/05/04 03:14:59;;;;;;;4.07;2.87;;;;;;;8.34;65.00;98099.88;4736994;29;103152;-75
2021/05/04 03:17:26;;;;;;;3.17;2.77;;;;;;;8.40;64.75;98092.41;4737291;29;103140;-76
2021/05/04 03:19:53;;;;;;;3.73;2.40;;;;;;;8.46;63.82;98093.75;4736903;29;103067;-74
2021/05/04 03:22:21;;;;;;;2.80;2.60;;;;;;;8.53;64.43;98089.72;4737244;29;105441;-76
2021/05/04 03:24:48;;;;;;;2.67;2.47;;;;;;;8.56;63.94;98082.41;4753230;29;103808;-77
2021/05/04 03:27:15;;;;;;;3.17;2.70;;;;;;;8.56;63.74;98078.97;4740556;29;102990;-76
2021/05/04 03:29:44;;;;;;;3.07;2.40;;;;;;;8.60;63.69;98073.34;4703293;29;103056;-74
2021/05/04 03:32:11;;;;;;;4.03;2.60;;;;;;;8.60;63.90;98070.72;4727963;29;104024;-74
2021/05/04 03:34:38;;;;;;;2.50;2.30;;;;;;;8.60;63.38;98070.72;4737090;29;104531;-73
2021/05/04 03:37:05;;;;;;;2.77;2.53;;;;;;;8.61;63.70;98061.88;4719979;29;103140;-76
2021/05/04 03:39:33;;;;;;;4.17;2.83;;;;;;;8.65;63.21;98065.09;4736375;29;103048;-71
2021/05/04 03:42:00;;;;;;;2.97;2.73;;;;;;;8.66;63.42;98066.78;4736534;29;104290;-74
2021/05/04 03:44:27;;;;;;;4.63;2.60;;;;;;;8.64;63.67;98064.28;4737148;29;103371;-74
2021/05/04 03:46:54;;;;;;;2.63;2.43;;;;;;;8.62;63.76;98074.06;4737268;29;103047;-74
2021/05/04 03:49:21;;;;;;;3.20;2.73;;;;;;;8.63;64.20;98065.22;4733926;29;102747;-86
2021/05/04 03:51:48;;;;;;;3.37;2.93;;;;;;;8.69;63.90;98059.50;4718809;29;103975;-86
2021/05/04 03:54:15;;;;;;;3.07;2.30;;;;;;;8.70;63.51;98050.63;4745329;29;105163;-88
2021/05/04 03:56:43;;;;;;;3.10;2.43;;;;;;;8.70;63.61;98040.09;4742840;29;103221;-86
2021/05/04 03:59:10;;;;;;;2.87;2.57;;;;;;;8.70;63.24;98045.38;4732900;29;103547;-85
2021/05/04 04:01:37;;;;;;;2.73;2.30;;;;;;;8.68;63.33;98035.91;4724857;29;103979;-86
2021/05/04 04:04:06;;;;;;;2.20;2.00;;;;;;;8.76;63.08;98032.72;4726566;29;103403;-86
2021/05/04 04:06:33;;;;;;;3.83;2.10;;;;;;;8.81;62.60;98035.84;4732389;29;103189;-85
2021/05/04 04:09:00;;;;;;;2.40;2.20;;;;;;;8.85;62.60;98021.47;4735866;29;103125;-85
2021/05/04 04:11:27;;;;;;;2.20;2.00;;;;;;;8.86;62.46;98020.50;4733503;29;104507;-86
2021/05/04 04:13:55;;;;;;;2.97;2.17;;;;;;;8.87;62.15;98019.56;4734992;29;104366;-86
2021/05/04 04:16:22;;;;;;;2.43;2.20;;;;;;;8.91;62.03;98013.94;4735326;29;102846;-86
2021/05/04 04:18:48;;;;;;;2.30;2.10;;;;;;;8.94;61.74;98004.97;4726987;29;102712;-86
2021/05/04 04:21:15;;;;;;;7.77;2.47;;;;;;;8.96;61.70;98001.25;4732513;29;103783;-86
2021/05/04 04:23:42;;;;;;;1.93;1.80;;;;;;;8.95;61.68;97990.84;4742501;29;106921;-86
2021/05/04 04:26:09;;;;;;;2.57;2.20;;;;;;;8.98;61.70;97994.06;4734757;29;103053;-86
2021/05/04 04:28:36;;;;;;;1.83;1.73;;;;;;;9.04;61.33;97992.78;4730898;29;103073;-86
2021/05/04 04:31:04;;;;;;;2.30;2.10;;;;;;;9.04;61.19;97990.97;4726038;29;104883;-86
2021/05/04 04:33:31;;;;;;;3.33;1.80;;;;;;;9.07;61.46;97989.88;4734469;29;104251;-86
2021/05/04 04:35:58;;;;;;;2.17;1.90;;;;;;;9.14;61.17;97996.38;4734999;29;103306;-85
2021/05/04 04:38:25;;;;;;;2.53;2.20;;;;;;;9.16;61.44;97989.19;4734769;29;103205;-80
2021/05/04 04:40:52;;;;;;;2.83;2.13;;;;;;;9.20;60.64;97977.44;4735115;29;103997;-74
2021/05/04 04:43:19;;;;;;;2.07;1.87;;;;;;;9.21;60.80;97972.03;4736139;29;103800;-74
2021/05/04 04:45:46;;;;;;;2.20;2.00;;;;;;;9.23;60.44;97974.59;4736154;29;102944;-74
2021/05/04 04:48:14;;;;;;;2.23;2.03;;;;;;;9.27;60.34;97961.03;4736517;29;103029;-76
2021/05/04 04:50:41;;;;;;;2.40;1.87;;;;;;;9.33;60.50;97963.19;4726374;29;104622;-75
2021/05/04 04:53:08;;;;;;;3.93;2.23;;;;;;;9.35;60.49;97962.25;4729359;29;105538;-76
2021/05/04 04:55:35;;;;;;;3.03;2.07;;;;;;;9.39;59.83;97959.22;4753592;29;103792;-82
2021/05/04 04:58:02;;;;;;;2.77;2.10;;;;;;;9.41;59.84;97957.31;4750656;29;103327;-75
2021/05/04 05:00:32;;;;;;;2.33;2.13;;;;;;;9.48;59.74;97966.41;4735964;29;105307;-76
2021/05/04 05:02:59;;;;;;;3.30;2.03;;;;;;;9.51;59.77;97963.53;4735310;29;103676;-74
2021/05/04 05:05:27;;;;;;;2.70;2.23;;;;;;;9.54;59.94;97955.38;4734246;29;102667;-74
2021/05/04 05:07:54;;;;;;;2.10;1.90;;;;;;;9.56;60.00;97956.09;4741104;29;103097;-74
2021/05/04 05:10:21;;;;;;;4.37;2.20;;;;;;;9.61;60.14;97964.47;4734392;29;104184;-75
2021/05/04 05:12:48;;;;;;;2.90;1.93;;;;;;;9.62;59.23;97952.13;4731923;29;103731;-77
2021/05/04 05:15:15;;;;;;;2.50;2.23;;;;;;;9.63;59.74;97945.88;4713418;29;103220;-79
2021/05/04 05:17:42;;;;;;;2.93;2.07;;;;;;;9.68;59.57;97943.72;4698946;29;103041;-75
2021/05/04 05:20:10;;;;;;;2.50;2.00;;;;;;;9.76;59.25;97944.78;4717835;29;104309;-74
2021/05/04 05:22:38;;;;;;;3.13;1.90;;;;;;;9.78;59.49;97940.22;4735372;29;103777;-77
2021/05/04 05:25:10;;;;;;;2.43;2.20;;;;;;;9.77;59.47;97935.91;4751267;29;108723;-77
2021/05/04 05:27:37;;;;;;;1.80;1.70;;;;;;;9.86;59.52;97932.53;4736934;29;102646;-76
2021/05/04 05:30:06;;;;;;;2.13;1.87;;;;;;;9.91;59.24;97940.91;4734034;29;104353;-76
2021/05/04 05:32:33;;;;;;;3.53;1.70;;;;;;;9.94;59.06;97933.72;4731230;29;105043;-74
2021/05/04 05:35:00;;;;;;;2.47;1.60;;;;;;;10.01;59.36;97929.59;4733387;29;102992;-77
2021/05/04 05:37:28;;;;;;;3.13;2.10;;;;;;;10.04;59.03;97929.34;4734528;29;103101;-75
2021/05/04 05:39:56;;;;;;;2.47;1.97;;;;;;;10.07;59.47;97923.81;4731388;29;104423;-75
2021/05/04 05:42:23;;;;;;;2.77;1.80;;;;;;;10.07;59.77;97923.81;4732685;29;103641;-74
2021/05/04 05:44:50;;;;;;;2.10;1.90;;;;;;;10.16;58.94;97918.63;4733211;29;102606;-75
2021/05/04 05:47:17;;;;;;;3.53;2.30;;;;;;;10.23;59.08;97924.25;4733770;29;103218;-76
2021/05/04 05:49:45;;;;;;;2.20;2.00;;;;;;;10.31;58.86;97921.81;4730863;29;104446;-76
2021/05/04 05:52:12;;;;;;;2.70;1.90;;;;;;;10.35;58.54;97923.25;4730900;29;103688;-78
2021/05/04 05:54:39;;;;;;;4.30;1.90;;;;;;;10.42;58.46;97914.66;4734783;29;103138;-76
2021/05/04 05:57:09;;;;;;;3.30;1.97;;;;;;;10.49;58.25;97917.66;4732811;29;103387;-77
2021/05/04 05:59:37;;;;;;;1.87;1.70;;;;;;;10.57;58.60;97917.84;4731894;29;103868;-77
2021/05/04 06:02:04;;;;;;;3.13;1.77;;;;;;;10.59;58.06;97907.97;4733383;29;103787;-75
2021/05/04 06:04:31;;;;;;;2.20;2.00;;;;;;;10.68;58.34;97906.34;4731433;29;103295;-79
2021/05/04 06:06:58;;;;;;;2.13;1.60;;;;;;;10.80;57.65;97908.78;4731970;29;103793;-77
2021/05/04 06:09:25;;;;;;;2.23;1.73;;;;;;;10.89;56.84;97910.63;4726861;29;103930;-77
2021/05/04 06:11:52;;;;;;;2.27;1.77;;;;;;;10.98;57.14;97896.63;4730948;29;104997;-76
2021/05/04 06:14:21;;;;;;;2.13;1.93;;;;;;;11.06;56.47;97906.53;4731721;29;103362;-76
2021/05/04 06:16:48;;;;;;;3.50;1.97;;;;;;;11.14;55.53;97895.31;4733104;29;103255;-80
2021/05/04 06:19:15;;;;;;;3.63;1.70;;;;;;;11.30;55.75;97895.63;4732712;29;104381;-76
2021/05/04 06:21:42;;;;;;;6.23;2.10;;;;;;;11.35;55.41;97891.63;4732796;29;103793;-76
2021/05/04 06:24:10;;;;;;;3.27;1.80;;;;;;;11.50;55.07;97886.78;4747355;29;103158;-81
2021/05/04 06:26:37;;;;;;;2.13;1.80;;;;;;;11.56;54.32;97886.25;4748586;29;102829;-77
2021/05/04 06:29:06;;;;;;;1.87;1.77;;;;;;;11.62;54.32;97885.72;4732904;29;104585;-77
2021/05/04 06:31:34;;;;;;;3.73;2.00;;;;;;;11.72;53.40;97886.59;4733631;29;104260;-76
2021/05/04 06:34:03;;;;;;;5.83;2.03;;;;;;;11.85;53.49;97883.66;4732083;29;103204;-77
2021/05/04 06:36:31;;;;;;;2.83;1.80;;;;;;;11.95;52.81;97887.16;4719562;29;103149;-76
2021/05/04 06:38:58;;;;;;;2.77;1.53;;;;;;;11.95;52.54;97880.06;4744388;29;103289;-76
2021/05/04 06:41:25;;;;;;;2.23;1.90;;;;;;;12.00;52.36;97888.41;4736249;29;104868;-76
2021/05/04 06:43:52;;;;;;;2.40;1.70;;;;;;;12.11;52.81;97879.50;4736321;29;103206;-76
2021/05/04 06:46:20;;;;;;;1.50;1.40;;;;;;;12.20;52.37;97882.16;4735242;29;102985;-76
2021/05/04 06:48:48;;;;;;;4.47;1.97;;;;;;;12.25;51.92;97878.22;4733551;29;103402;-76
2021/05/04 06:51:15;;;;;;;1.80;1.70;;;;;;;12.30;51.60;97882.13;4733704;29;105748;-78
2021/05/04 06:53:46;;;;;;;2.60;1.80;;;;;;;12.37;51.85;97877.09;4739547;29;103470;-77
2021/05/04 06:56:13;;;;;;;2.97;1.80;;;;;;;12.43;51.41;97871.25;4728439;29;103378;-76
2021/05/04 06:58:40;;;;;;;2.00;1.77;;;;;;;12.49;51.26;97871.50;4734645;29;105000;-76
2021/05/04 07:01:07;;;;;;;1.90;1.70;;;;;;;12.54;50.94;97863.97;4734342;29;106060;-77
2021/05/04 07:03:35;;;;;;;2.20;1.50;;;;;;;12.61;51.16;97865.06;4733692;29;103175;-77
2021/05/04 07:06:06;;;;;;;2.00;1.70;;;;;;;12.65;50.31;97849.72;4729256;29;103570;-76
2021/05/04 07:08:33;;;;;;;2.30;2.10;;;;;;;12.70;51.38;97853.59;4734356;29;103844;-77
2021/05/04 07:11:01;;;;;;;1.80;1.70;;;;;;;12.71;51.26;97855.28;4728858;29;107422;-76
2021/05/04 07:13:34;;;;;;;2.00;1.73;;;;;;;12.90;51.02;97843.78;4735691;29;103441;-76
2021/05/04 07:16:02;;;;;;;2.17;1.80;;;;;;;12.93;50.56;97840.84;4694630;29;103188;-76
2021/05/04 07:18:29;;;;;;;2.07;1.67;;;;;;;12.94;50.79;97839.84;4726073;29;111117;-76
2021/05/04 07:20:57;;;;;;;1.70;1.60;;;;;;;13.09;50.24;97842.88;4735772;29;112229;-77
2021/05/04 07:23:25;;;;;;;2.17;1.40;;;;;;;13.16;49.60;97844.81;4732279;29;104066;-76
2021/05/04 07:25:52;;;;;;;1.67;1.43;;;;;;;13.24;49.83;97841.41;4731936;29;102976;-77
2021/05/04 07:28:19;;;;;;;2.07;1.57;;;;;;;13.31;49.78;97835.34;4734742;29;103923;-76
2021/05/04 07:30:46;;;;;;;2.60;1.50;;;;;;;13.52;49.66;97834.25;4725291;29;103513;-76
2021/05/04 07:33:14;;;;;;;2.90;1.70;;;;;;;13.50;48.11;97836.25;4733018;29;103292;-77
2021/05/04 07:35:41;;;;;;;2.47;1.60;;;;;;;13.65;48.19;97824.09;4736757;29;103621;-78
2021/05/04 07:38:08;;;;;;;2.80;1.67;;;;;;;13.84;48.13;97835.41;4731810;29;104837;-76
2021/05/04 07:40:39;;;;;;;1.60;1.50;;;;;;;13.97;47.39;97829.72;4733031;29;104476;-76
2021/05/04 07:43:07;;;;;;;1.63;1.33;;;;;;;14.22;47.93;97823.63;4732104;29;103071;-77
2021/05/04 07:45:35;;;;;;;2.07;1.50;;;;;;;14.38;47.14;97823.78;4732932;29;103310;-77
2021/05/04 07:48:04;;;;;;;5.03;1.70;;;;;;;14.59;46.64;97819.94;4734284;29;105075;-78
2021/05/04 07:50:33;;;;;;;2.50;1.67;;;;;;;14.71;46.69;97814.16;4738979;29;103755;-77
2021/05/04 07:53:00;;;;;;;3.10;1.37;;;;;;;14.75;46.06;97788.09;4735279;29;103137;-77
2021/05/04 07:55:28;;;;;;;4.73;1.40;;;;;;;14.87;46.22;97808.97;4734676;29;103441;-76
2021/05/04 07:57:56;;;;;;;2.30;1.40;;;;;;;14.94;45.46;97809.13;4733924;29;105808;-76
2021/05/04 08:00:24;;;;;;;2.10;1.40;;;;;;;15.00;45.02;97804.03;4733669;29;104237;-76
2021/05/04 08:02:51;;;;;;;1.30;1.10;;;;;;;15.20;45.23;97815.25;4734543;29;103102;-76
2021/05/04 08:05:19;;;;;;;4.40;1.50;;;;;;;15.25;45.10;97812.94;4733672;29;103214;-77
2021/05/04 08:07:46;;;;;;;4.27;1.80;;;;;;;15.22;44.89;97813.25;4737651;29;104363;-77
2021/05/04 08:10:14;;;;;;;8.73;1.77;;;;;;;15.25;44.68;97809.44;4728240;29;103764;-76
2021/05/04 08:12:41;;;;;;;1.40;1.30;;;;;;;15.36;43.99;97815.28;4732760;29;102882;-77
2021/05/04 08:15:17;;;;;;;2.33;1.30;;;;;;;15.42;43.82;97804.00;4724278;29;103215;-77
2021/05/04 08:17:51;;;;;;;5.20;1.73;;;;;;;15.51;44.30;97821.69;4731426;29;104009;-77
2021/05/04 08:20:18;;;;;;;3.33;1.40;;;;;;;15.63;44.02;97801.75;4732531;29;103794;-76
2021/05/04 08:22:46;;;;;;;1.37;1.27;;;;;;;15.85;43.68;97816.28;4712079;29;103704;-76
2021/05/04 08:25:14;;;;;;;4.00;1.30;;;;;;;15.86;43.44;97807.25;4733491;29;103333;-76
2021/05/04 08:27:44;;;;;;;3.77;1.50;;;;;;;16.19;43.17;97797.47;4733858;29;108581;-76
2021/05/04 08:30:15;;;;;;;2.07;1.73;;;;;;;16.30;43.41;97794.47;4733728;29;103822;-76
2021/05/04 08:32:56;;;;;;;2.40;1.37;;;;;;;16.61;43.74;97790.09;4733242;29;103192;-76
2021/05/04 08:35:24;;;;;;;6.50;1.40;;;;;;;16.72;42.89;97810.25;4733693;29;103419;-76
2021/05/04 08:37:53;;;;;;;5.40;1.70;;;;;;;16.45;43.24;97814.06;4734647;29;104768;-78
2021/05/04 08:40:20;;;;;;;6.47;1.80;;;;;;;16.16;42.80;97800.47;4733604;29;103787;-70
2021/05/04 08:42:48;;;;;;;5.87;1.50;;;;;;;16.19;43.08;97819.63;4734039;29;103123;-74
2021/05/04 08:45:17;;;;;;;2.23;1.40;;;;;;;16.12;42.47;97801.78;4715977;29;102933;-79
2021/05/04 08:47:47;;;;;;;2.53;1.70;;;;;;;16.25;42.62;97796.81;4734431;29;104426;-74
2021/05/04 08:50:15;;;;;;;4.53;1.50;;;;;;;16.41;42.41;97796.78;4717857;29;105577;-75
2021/05/04 08:52:43;;;;;;;3.03;1.30;;;;;;;16.43;42.05;97784.09;4734468;29;103092;-75
2021/05/04 08:55:12;;;;;;;2.50;1.50;;;;;;;16.23;42.41;97794.28;4734831;29;103393;-76
2021/05/04 08:57:40;;;;;;;1.50;1.40;;;;;;;16.57;42.62;97794.09;4735256;29;104086;-72
2021/05/04 09:00:09;;;;;;;1.37;1.27;;;;;;;16.29;42.12;97792.78;4735934;29;103534;-76
2021/05/04 09:02:55;;;;;;;1.67;1.47;;;;;;;16.23;42.05;97786.28;4750316;29;102838;-76
2021/05/04 09:05:23;;;;;;;2.27;1.40;;;;;;;16.36;41.92;97801.78;4733738;29;103262;-74
2021/05/04 09:07:52;;;;;;;3.03;1.70;;;;;;;16.53;42.50;97789.25;4739765;29;106342;-75
2021/05/04 09:10:31;;;;;;;3.50;1.30;;;;;;;16.37;42.13;97794.59;4734159;29;103776;-74
2021/05/04 09:13:02;;;;;;;4.03;1.50;;;;;;;16.55;43.06;97788.13;4734314;29;103140;-75
2021/05/04 09:15:59;;;;;;;2.37;1.40;;;;;;;16.54;42.17;97789.09;4720250;29;104921;-74
2021/05/04 09:21:28;;;;;;;3.20;1.40;;;;;;;16.52;41.47;97787.59;4731217;29;103986;-73
2021/05/04 09:23:56;;;;;;;3.77;1.40;;;;;;;16.50;41.71;97779.78;4739016;29;102959;-74
2021/05/04 09:26:32;;;;;;;5.80;1.80;;;;;;;16.39;40.90;97792.63;4734176;29;102888;-74
2021/05/04 09:29:00;;;;;;;2.43;1.20;;;;;;;16.47;41.62;97774.78;4733655;29;104459;-74
2021/05/04 09:31:29;;;;;;;2.73;1.17;;;;;;;16.53;41.40;97768.78;4733931;29;103630;-74
2021/05/04 09:34:10;;;;;;;2.17;1.57;;;;;;;16.75;41.07;97789.41;4733991;29;102876;-75
2021/05/04 09:36:48;;;;;;;2.73;1.20;;;;;;;16.89;40.93;97763.84;4733899;29;103032;-74
2021/05/04 09:39:26;;;;;;;1.90;1.33;;;;;;;17.67;40.27;97761.13;4733548;29;103286;-76
2021/05/04 09:41:54;;;;;;;3.03;1.47;;;;;;;17.64;40.07;97775.66;4731037;29;105104;-75
2021/05/04 09:44:37;;;;;;;1.40;1.30;;;;;;;17.99;40.55;97752.03;4732877;29;103134;-77
2021/05/04 09:47:06;;;;;;;2.63;1.40;;;;;;;17.70;40.22;97774.97;4729924;29;102977;-77
2021/05/04 09:49:37;;;;;;;2.93;1.27;;;;;;;17.68;40.36;97779.66;4732665;29;104462;-75
2021/05/04 09:52:26;;;;;;;2.47;1.20;;;;;;;17.73;40.25;97777.28;4732010;29;105097;-75
2021/05/04 09:55:01;;;;;;;3.13;1.30;;;;;;;18.02;39.97;97773.06;4730983;29;103103;-75
2021/05/04 09:57:30;;;;;;;3.30;1.33;;;;;;;17.59;39.40;97777.19;4732571;29;103396;-75
2021/05/04 09:59:58;;;;;;;4.30;1.35;;;;;;;17.47;39.40;97783.91;4732446;29;105062;-75
2021/05/04 10:02:25;;;;;;;3.78;1.45;;;;;;;17.81;39.55;97771.03;4731794;29;103163;-76
2021/05/04 10:04:53;;;;;;;2.55;1.60;;;;;;;17.48;38.63;97770.41;4731163;29;103051;-76
2021/05/04 10:07:21;;;;;;;3.17;1.40;;;;;;;17.33;38.92;97778.31;4736296;29;102643;-74
2021/05/04 10:09:49;;;;;;;4.40;1.38;;;;;;;17.28;39.25;97774.50;4728293;29;104959;-74
2021/05/04 10:12:20;;;;;;;3.20;1.50;;;;;;;17.26;38.90;97779.19;4708946;29;104075;-76
2021/05/04 10:14:51;;;;;;;1.48;1.38;;;;;;;17.39;39.53;97761.59;4711603;29;103027;-75
2021/05/04 10:17:19;;;;;;;1.63;1.10;;;;;;;17.30;38.62;97772.50;4713651;29;103191;-74
2021/05/04 10:19:47;;;;;;;4.85;1.48;;;;;;;17.37;38.51;97760.13;4714609;29;110565;-79
2021/05/04 10:22:17;;;;;;;2.38;1.27;;;;;;;17.23;39.31;97766.19;4714351;29;103656;-77
2021/05/04 10:24:45;;;;;;;2.15;1.35;;;;;;;17.14;39.92;97762.75;4715971;29;103070;-81
2021/05/04 10:27:13;;;;;;;1.77;1.30;;;;;;;17.13;39.38;97755.72;4715103;29;102862;-77
2021/05/04 10:29:42;;;;;;;2.05;1.13;;;;;;;17.21;39.57;97746.84;4731964;29;104964;-76
2021/05/04 10:32:13;;;;;;;2.47;1.48;;;;;;;17.49;39.99;97761.38;4715443;29;105556;-77
2021/05/04 10:34:41;;;;;;;2.92;1.23;;;;;;;17.58;39.86;97743.47;4708499;29;103027;-77
2021/05/04 10:37:33;;;;;;;2.50;1.60;;;;;;;17.57;39.45;97752.53;4712429;29;103966;-76
2021/05/04 10:40:00;;;;;;;2.35;1.45;;;;;;;17.68;39.38;97758.28;4719777;29;109190;-74
2021/05/04 10:42:33;;;;;;;3.30;1.60;;;;;;;17.86;39.38;97747.28;4711467;29;105647;-73
2021/05/04 10:45:09;;;;;;;1.52;1.42;;;;;;;17.62;38.69;97745.63;4713930;29;103987;-74
2021/05/04 10:47:50;;;;;;;2.38;1.30;;;;;;;17.86;39.62;97753.47;4712161;29;103133;-75
2021/05/04 10:50:24;;;;;;;3.83;1.50;;;;;;;17.69;38.67;97761.75;4713722;29;103943;-72
2021/05/04 10:53:10;;;;;;;5.63;1.65;;;;;;;17.83;38.42;97748.47;4705266;29;106760;-72
2021/05/04 10:56:08;;;;;;;4.72;1.58;;;;;;;18.05;38.61;97751.31;4730702;29;103201;-74
2021/05/04 10:58:50;;;;;;;1.70;1.50;;;;;;;17.97;38.73;97754.88;4731415;29;103020;-73
2021/05/04 11:01:20;;;;;;;2.08;1.30;;;;;;;17.94;38.84;97750.72;4731182;29;103880;-76
2021/05/04 11:03:55;;;;;;;4.40;1.63;;;;;;;17.83;38.06;97752.97;4720457;29;104780;-73
2021/05/04 11:06:43;;;;;;;5.15;1.60;;;;;;;17.85;38.47;97733.09;4710973;29;103234;-73
2021/05/04 11:09:14;;;;;;;3.30;1.50;;;;;;;17.74;38.36;97746.88;4701538;29;103547;-74
2021/05/04 11:11:47;;;;;;;2.00;1.40;;;;;;;17.90;38.66;97751.25;4708840;29;104027;-73
2021/05/04 11:14:34;;;;;;;7.28;1.50;;;;;;;17.83;38.23;97753.81;4720065;29;104128;-76
2021/05/04 11:17:10;;;;;;;3.33;1.52;;;;;;;17.58;38.38;97738.97;4707041;29;103464;-75
2021/05/04 11:19:41;;;;;;;2.35;1.38;;;;;;;17.57;38.56;97731.16;4717437;29;102815;-74
2021/05/04 11:22:13;;;;;;;4.75;1.70;;;;;;;17.51;38.63;97762.03;4726458;29;104624;-76
2021/05/04 11:24:47;;;;;;;3.63;1.83;;;;;;;17.63;38.66;97741.94;4716920;29;103839;-76
2021/05/04 11:27:29;;;;;;;1.55;1.42;;;;;;;17.72;38.73;97738.22;4716449;29;103351;-76
2021/05/04 11:30:01;;;;;;;6.70;1.40;;;;;;;17.68;39.16;97738.75;4718108;29;108196;-78
2021/05/04 11:32:44;;;;;;;3.17;1.33;;;;;;;17.92;38.48;97736.72;4717745;29;104485;-75
2021/05/04 11:35:12;;;;;;;1.85;1.30;;;;;;;17.92;38.01;97739.38;4716907;29;104701;-74
2021/05/04 11:37:46;;;;;;;2.67;1.42;;;;;;;18.04;38.27;97725.59;4717489;29;103110;-72
2021/05/04 11:40:24;;;;;;;6.40;1.80;;;;;;;18.20;38.37;97728.09;4717748;29;103460;-75